createdAt,value
2022-11-02T00:04:03.148Z,94.31
2022-11-02T00:09:07.097Z,95.71
2022-11-02T00:14:09.753Z,94.79
2022-11-02T00:19:12.783Z,93.25
2022-11-02T00:24:16.775Z,92.29
2022-11-02T00:29:20.889Z,91.32
2022-11-02T00:34:23.451Z,90.27
2022-11-02T00:39:27.448Z,88.60
2022-11-02T00:44:30.036Z,87.78
2022-11-02T00:49:32.623Z,87.47
2022-11-02T00:54:36.697Z,86.42
2022-11-02T00:59:39.325Z,86.25
2022-11-02T01:04:42.127Z,85.81
2022-11-02T01:09:46.183Z,86.19
2022-11-02T01:14:49.126Z,86.52
2022-11-02T01:19:51.971Z,86.76
2022-11-02T01:24:56.275Z,86.63
2022-11-02T01:29:58.866Z,86.98
2022-11-02T01:35:02.815Z,85.99
2022-11-02T01:40:07.825Z,84.90
2022-11-02T01:45:14.383Z,85.32
2022-11-02T01:50:20.979Z,83.92
2022-11-02T01:55:29.320Z,84.51
2022-11-02T02:00:31.995Z,85.04
2022-11-02T02:05:37.205Z,85.98
2022-11-02T02:10:41.658Z,85.60
2022-11-02T02:15:51.465Z,85.15
2022-11-02T02:21:18.102Z,85.39
2022-11-02T02:26:56.030Z,85.08
2022-11-02T02:32:06.819Z,85.66
2022-11-02T02:37:17.311Z,87.85
2022-11-02T02:42:22.760Z,87.75
2022-11-02T02:47:31.600Z,87.29
2022-11-02T02:52:37.573Z,88.01
2022-11-02T02:57:40.977Z,89.30
2022-11-02T03:03:00.852Z,87.89
2022-11-02T03:08:08.833Z,89.60
2022-11-02T03:13:23.613Z,92.17
2022-11-02T03:18:31.302Z,91.21
2022-11-02T03:23:39.340Z,94.87
2022-11-02T03:28:51.232Z,93.28
2022-11-02T03:34:00.739Z,92.54
2022-11-02T03:39:09.241Z,94.46
2022-11-02T03:44:16.208Z,95.18
2022-11-02T03:49:22.738Z,94.11
2022-11-02T03:54:36.205Z,96.91
2022-11-02T03:59:38.827Z,99.08
2022-11-02T04:04:50.989Z,95.86
2022-11-02T04:09:53.639Z,96.44
2022-11-02T04:14:56.240Z,97.90
2022-11-02T04:20:00.256Z,96.61
2022-11-02T04:25:18.702Z,93.31
2022-11-02T04:30:23.922Z,91.72
2022-11-02T04:35:28.354Z,90.90
2022-11-02T04:40:31.047Z,90.33
2022-11-02T04:45:33.636Z,90.44
2022-11-02T04:50:38.135Z,89.99
2022-11-02T04:55:40.637Z,89.95
2022-11-02T05:00:43.437Z,90.35
2022-11-02T05:05:47.423Z,90.08
2022-11-02T05:10:50.120Z,90.13
2022-11-02T05:15:53.125Z,90.42
2022-11-02T05:21:00.244Z,90.36
2022-11-02T05:26:04.971Z,91.97
2022-11-02T05:31:08.105Z,90.73
2022-11-02T05:36:12.819Z,90.93
2022-11-02T05:41:15.531Z,90.58
2022-11-02T05:46:19.127Z,89.85
2022-11-02T05:51:23.057Z,90.68
2022-11-02T05:56:25.620Z,89.59
2022-11-02T06:01:28.264Z,89.98
2022-11-02T06:06:33.155Z,89.40
2022-11-02T06:11:35.847Z,88.67
2022-11-02T06:16:38.468Z,89.25
2022-11-02T06:21:44.512Z,90.01
2022-11-02T06:26:50.006Z,91.83
2022-11-02T06:31:52.568Z,90.40
2022-11-02T06:36:56.590Z,90.13
2022-11-02T06:41:59.175Z,89.53
2022-11-02T06:47:01.781Z,89.65
2022-11-02T06:52:05.971Z,88.33
2022-11-02T06:57:08.562Z,88.07
2022-11-02T07:02:11.310Z,87.45
2022-11-02T07:07:15.367Z,86.97
2022-11-02T07:12:22.035Z,85.18
2022-11-02T07:17:29.612Z,85.02
2022-11-02T07:22:36.096Z,85.49
2022-11-02T07:27:41.503Z,85.31
2022-11-02T07:32:45.352Z,85.19
2022-11-02T07:37:57.651Z,84.59
2022-11-02T07:43:00.999Z,85.50
2022-11-02T07:48:03.622Z,85.81
2022-11-02T07:53:07.948Z,83.93
2022-11-02T07:58:17.262Z,83.22
2022-11-02T08:03:19.883Z,83.85
2022-11-02T08:08:25.354Z,84.02
2022-11-02T08:13:32.673Z,83.84
2022-11-02T08:18:35.807Z,82.48
2022-11-02T08:23:39.758Z,82.14
2022-11-02T08:28:42.372Z,82.77
2022-11-02T08:33:45.383Z,83.01
2022-11-02T08:38:49.406Z,81.58
2022-11-02T08:43:52.074Z,81.73
2022-11-02T08:48:54.662Z,81.64
2022-11-02T08:53:58.730Z,81.28
2022-11-02T08:59:01.309Z,82.68
2022-11-02T09:04:03.926Z,82.00
2022-11-02T09:09:07.884Z,79.97
2022-11-02T09:14:10.550Z,78.50
2022-11-02T09:19:13.168Z,78.62
2022-11-02T09:24:17.348Z,77.46
2022-11-02T09:29:20.150Z,75.11
2022-11-02T09:34:22.694Z,73.59
2022-11-02T09:39:26.618Z,72.34
2022-11-02T09:44:37.401Z,72.85
2022-11-02T09:49:42.596Z,71.50
2022-11-02T09:54:51.470Z,67.89
2022-11-02T09:59:54.169Z,68.56
2022-11-02T10:05:11.585Z,64.29
2022-11-02T10:10:19.270Z,63.32
2022-11-02T10:15:26.759Z,62.58
2022-11-02T10:20:35.803Z,57.91
2022-11-02T10:25:39.761Z,54.39
2022-11-02T10:30:45.051Z,51.85
2022-11-02T10:36:17.519Z,51.38
2022-11-02T10:41:37.813Z,52.97
2022-11-02T10:46:49.463Z,49.91
2022-11-02T10:51:52.091Z,49.29
2022-11-02T10:56:57.457Z,49.27
2022-11-02T11:02:13.408Z,46.83
2022-11-02T11:07:20.947Z,43.53
2022-11-02T11:12:33.121Z,42.66
2022-11-02T11:23:22.272Z,46.66
2022-11-02T11:28:28.513Z,48.11
2022-11-02T11:33:33.019Z,48.51
2022-11-02T11:38:35.683Z,49.45
2022-11-02T11:43:41.142Z,47.29
2022-11-02T11:48:48.243Z,44.46
2022-11-02T11:54:07.014Z,45.09
2022-11-02T11:59:21.469Z,44.36
2022-11-02T12:04:38.349Z,43.33
2022-11-02T12:09:45.813Z,43.52
2022-11-02T12:15:04.017Z,43.12
2022-11-02T12:20:40.640Z,42.51
2022-11-02T12:25:50.502Z,42.59
2022-11-02T12:31:06.727Z,42.71
2022-11-02T12:36:33.247Z,42.26
2022-11-02T12:41:54.148Z,39.92
2022-11-02T12:47:07.941Z,40.89
2022-11-02T12:52:25.106Z,43.51
2022-11-02T12:57:32.787Z,40.18
2022-11-02T13:02:46.112Z,37.88
2022-11-02T13:07:54.090Z,38.75
2022-11-02T13:13:00.348Z,41.55
2022-11-02T13:18:08.081Z,39.78
2022-11-02T13:23:21.057Z,38.01
2022-11-02T13:28:33.315Z,38.57
2022-11-02T13:33:42.758Z,41.06
2022-11-02T13:38:50.311Z,40.14
2022-11-02T13:44:32.379Z,41.39
2022-11-02T13:49:40.442Z,42.81
2022-11-02T13:54:46.205Z,39.69
2022-11-02T13:59:48.916Z,42.80
2022-11-02T14:04:52.972Z,42.48
2022-11-02T14:10:00.290Z,42.55
2022-11-02T14:15:48.525Z,43.44
2022-11-02T14:20:52.480Z,45.80
2022-11-02T14:25:56.612Z,48.76
2022-11-02T14:31:27.581Z,53.22
2022-11-02T14:36:49.691Z,54.76
2022-11-02T14:42:12.422Z,56.89
2022-11-02T14:47:18.240Z,58.15
2022-11-02T14:52:28.446Z,58.92
2022-11-02T14:57:35.043Z,59.20
2022-11-02T15:02:43.153Z,58.71
2022-11-02T15:07:54.718Z,59.65
2022-11-02T15:13:34.529Z,61.54
2022-11-02T15:18:38.300Z,60.61
2022-11-02T15:28:58.012Z,60.96
2022-11-02T15:34:03.914Z,61.96
2022-11-02T15:39:10.503Z,61.96
2022-11-02T15:44:26.817Z,62.61
2022-11-02T15:49:41.962Z,63.12
2022-11-02T15:55:01.065Z,68.80
2022-11-02T16:00:17.826Z,65.59
2022-11-02T16:05:23.944Z,65.57
2022-11-02T16:10:31.176Z,69.78
2022-11-02T16:15:34.064Z,68.53
2022-11-02T16:20:39.928Z,69.50
2022-11-02T16:25:47.601Z,72.32
2022-11-02T16:31:12.463Z,72.64
2022-11-02T16:36:20.910Z,73.74
2022-11-02T16:41:26.697Z,73.20
2022-11-02T16:46:31.984Z,73.11
2022-11-02T16:51:34.899Z,74.76
2022-11-02T16:56:39.502Z,74.75
2022-11-02T17:01:43.802Z,73.65
2022-11-02T17:06:47.624Z,73.51
2022-11-02T17:11:52.210Z,74.48
2022-11-02T17:16:59.788Z,76.45
2022-11-02T17:22:12.187Z,75.54
2022-11-02T17:27:26.230Z,74.84
2022-11-02T17:32:29.627Z,75.41
2022-11-02T17:37:33.311Z,74.50
2022-11-02T17:42:55.780Z,76.36
2022-11-02T17:47:59.906Z,77.45
2022-11-02T17:53:03.595Z,77.92
2022-11-02T17:58:08.579Z,78.42
2022-11-02T18:03:15.738Z,79.66
2022-11-02T18:08:18.406Z,81.12
2022-11-02T18:13:24.928Z,82.86
2022-11-02T18:18:27.507Z,83.64
2022-11-02T18:23:31.371Z,78.72
2022-11-02T18:28:35.396Z,79.11
2022-11-02T18:33:38.008Z,77.64
2022-11-02T18:38:40.775Z,76.39
2022-11-02T18:43:44.756Z,76.11
2022-11-02T18:48:47.749Z,78.21
2022-11-02T18:53:57.777Z,75.87
2022-11-02T18:59:02.154Z,76.79
2022-11-02T19:04:04.984Z,78.17
2022-11-02T19:09:21.105Z,89.13
2022-11-02T19:14:25.741Z,87.66
2022-11-02T19:19:28.454Z,85.13
2022-11-02T19:24:31.081Z,87.99
2022-11-02T19:29:35.085Z,90.98
2022-11-02T19:34:38.234Z,84.48
2022-11-02T19:39:40.867Z,84.08
2022-11-02T19:44:44.823Z,91.33
2022-11-02T19:49:47.527Z,84.89
2022-11-02T19:54:50.063Z,84.30
2022-11-02T19:59:54.037Z,83.03
2022-11-02T20:04:56.591Z,82.78
2022-11-02T20:09:59.864Z,89.30
2022-11-02T20:15:04.370Z,87.04
2022-11-02T20:20:08.576Z,94.66
2022-11-02T20:25:11.226Z,97.85
2022-11-02T20:30:15.298Z,97.52
2022-11-02T20:35:22.785Z,99.02
2022-11-02T20:40:27.408Z,95.50
2022-11-02T20:45:31.256Z,100.00
2022-11-02T20:50:34.016Z,100.00
2022-11-02T20:55:36.568Z,100.00
2022-11-02T21:00:40.598Z,98.84
2022-11-02T21:05:43.711Z,100.00
2022-11-02T21:10:56.233Z,100.00
2022-11-02T21:16:04.686Z,100.00
2022-11-02T21:21:09.209Z,100.00
2022-11-02T21:26:13.234Z,100.00
2022-11-02T21:31:20.353Z,99.30
2022-11-02T21:36:23.017Z,100.00
2022-11-02T21:41:28.685Z,100.00
2022-11-02T21:46:32.893Z,100.00
2022-11-02T21:51:37.181Z,100.00
2022-11-02T21:56:39.813Z,100.00
2022-11-02T22:01:49.044Z,100.00
2022-11-02T22:06:52.619Z,100.00
2022-11-02T22:12:09.381Z,99.53
2022-11-02T22:17:35.392Z,100.00
2022-11-02T22:22:36.151Z,92.81
2022-11-02T22:27:38.866Z,96.86
2022-11-02T22:32:42.761Z,92.48
2022-11-02T22:38:08.449Z,94.51
2022-11-02T22:43:11.154Z,93.54
2022-11-02T22:48:15.162Z,90.73
2022-11-02T22:53:17.881Z,90.38
2022-11-02T22:58:20.486Z,91.10
2022-11-02T23:03:25.095Z,88.96
2022-11-02T23:13:35.588Z,88.85
2022-11-02T23:18:53.481Z,89.60
2022-11-02T23:24:13.641Z,88.76
2022-11-02T23:29:34.051Z,87.59
2022-11-02T23:34:38.089Z,87.60
2022-11-02T23:39:49.741Z,88.42
2022-11-02T23:44:52.508Z,91.52
2022-11-02T23:49:56.514Z,96.68
2022-11-02T23:55:17.221Z,97.91
